sensor_id;sensor_type;location;lat;lon;timestamp;pressure;altitude;pressure_sealevel;temperature;humidity
50484;BME280;36409;52.168;20.878;2022-10-10T00:00:13;101667.25;;;2.67;75.48
50484;BME280;36409;52.168;20.878;2022-10-10T00:03:02;101674.98;;;2.67;75.29
50484;BME280;36409;52.168;20.878;2022-10-10T00:05:31;101670.73;;;2.68;75.47
50484;BME280;36409;52.168;20.878;2022-10-10T00:08:01;101669.78;;;2.66;75.59
50484;BME280;36409;52.168;20.878;2022-10-10T00:10:30;101665.45;;;2.65;75.25
50484;BME280;36409;52.168;20.878;2022-10-10T00:12:59;101668.02;;;2.65;76.08
50484;BME280;36409;52.168;20.878;2022-10-10T00:15:29;101664.45;;;2.61;75.11
50484;BME280;36409;52.168;20.878;2022-10-10T00:17:58;101661.70;;;2.56;75.21
50484;BME280;36409;52.168;20.878;2022-10-10T00:20:27;101662.34;;;2.51;75.76
50484;BME280;36409;52.168;20.878;2022-10-10T00:22:57;101662.16;;;2.46;75.76
50484;BME280;36409;52.168;20.878;2022-10-10T00:25:26;101651.53;;;2.38;75.16
50484;BME280;36409;52.168;20.878;2022-10-10T00:27:55;101654.75;;;2.33;75.29
50484;BME280;36409;52.168;20.878;2022-10-10T00:30:29;101656.42;;;2.32;75.62
50484;BME280;36409;52.168;20.878;2022-10-10T00:32:58;101652.17;;;2.33;75.75
50484;BME280;36409;52.168;20.878;2022-10-10T00:35:28;101650.41;;;2.31;76.20
50484;BME280;36409;52.168;20.878;2022-10-10T00:37:57;101646.06;;;2.30;75.11
50484;BME280;36409;52.168;20.878;2022-10-10T00:40:26;101645.20;;;2.30;75.45
50484;BME280;36409;52.168;20.878;2022-10-10T00:42:56;101646.88;;;2.29;75.37
50484;BME280;36409;52.168;20.878;2022-10-10T00:45:35;101644.30;;;2.29;75.42
50484;BME280;36409;52.168;20.878;2022-10-10T00:48:16;101644.26;;;2.28;76.30
50484;BME280;36409;52.168;20.878;2022-10-10T00:50:49;101638.34;;;2.30;75.79
50484;BME280;36409;52.168;20.878;2022-10-10T00:53:23;101644.36;;;2.31;75.82
50484;BME280;36409;52.168;20.878;2022-10-10T00:55:56;101635.76;;;2.30;76.47
50484;BME280;36409;52.168;20.878;2022-10-10T00:58:26;101633.23;;;2.32;75.76
50484;BME280;36409;52.168;20.878;2022-10-10T01:00:55;101633.23;;;2.32;75.72
50484;BME280;36409;52.168;20.878;2022-10-10T01:03:26;101633.31;;;2.34;75.67
50484;BME280;36409;52.168;20.878;2022-10-10T01:05:56;101645.39;;;2.35;76.66
50484;BME280;36409;52.168;20.878;2022-10-10T01:08:28;101638.39;;;2.32;75.55
50484;BME280;36409;52.168;20.878;2022-10-10T01:11:09;101654.80;;;2.34;76.11
50484;BME280;36409;52.168;20.878;2022-10-10T01:13:49;101649.64;;;2.34;75.81
50484;BME280;36409;52.168;20.878;2022-10-10T01:16:28;101648.69;;;2.32;76.18
50484;BME280;36409;52.168;20.878;2022-10-10T01:19:14;101651.98;;;2.28;75.55
50484;BME280;36409;52.168;20.878;2022-10-10T01:21:59;101660.27;;;2.21;75.94
50484;BME280;36409;52.168;20.878;2022-10-10T01:25:02;101661.70;;;2.14;76.29
50484;BME280;36409;52.168;20.878;2022-10-10T01:27:41;101656.45;;;2.11;75.47
50484;BME280;36409;52.168;20.878;2022-10-10T01:30:16;101661.47;;;2.08;75.40
50484;BME280;36409;52.168;20.878;2022-10-10T01:32:51;101657.84;;;2.03;76.38
50484;BME280;36409;52.168;20.878;2022-10-10T01:35:42;101654.23;;;1.99;76.01
50484;BME280;36409;52.168;20.878;2022-10-10T01:38:24;101651.66;;;1.99;76.01
50484;BME280;36409;52.168;20.878;2022-10-10T01:41:02;101652.55;;;1.99;76.34
50484;BME280;36409;52.168;20.878;2022-10-10T01:43:32;101645.78;;;2.02;76.58
50484;BME280;36409;52.168;20.878;2022-10-10T01:46:11;101645.83;;;2.03;76.66
50484;BME280;36409;52.168;20.878;2022-10-10T01:48:41;101644.96;;;2.03;76.72
50484;BME280;36409;52.168;20.878;2022-10-10T01:51:26;101652.69;;;2.03;76.73
50484;BME280;36409;52.168;20.878;2022-10-10T01:54:04;101654.37;;;2.02;76.27
50484;BME280;36409;52.168;20.878;2022-10-10T01:56:43;101655.32;;;2.04;76.50
50484;BME280;36409;52.168;20.878;2022-10-10T01:59:24;101653.69;;;2.06;75.86
50484;BME280;36409;52.168;20.878;2022-10-10T02:02:01;101652.74;;;2.04;75.74
50484;BME280;36409;52.168;20.878;2022-10-10T02:04:37;101655.27;;;2.03;76.06
50484;BME280;36409;52.168;20.878;2022-10-10T02:07:12;101645.78;;;2.02;76.83
50484;BME280;36409;52.168;20.878;2022-10-10T02:09:46;101653.50;;;2.02;76.79
50484;BME280;36409;52.168;20.878;2022-10-10T02:12:19;101639.54;;;1.96;76.25
50484;BME280;36409;52.168;20.878;2022-10-10T02:14:55;101643.69;;;1.93;76.43
50484;BME280;36409;52.168;20.878;2022-10-10T02:17:26;101644.37;;;1.89;76.73
50484;BME280;36409;52.168;20.878;2022-10-10T02:19:59;101646.89;;;1.87;76.53
50484;BME280;36409;52.168;20.878;2022-10-10T02:22:31;101644.27;;;1.85;76.81
50484;BME280;36409;52.168;20.878;2022-10-10T02:25:00;101644.94;;;1.81;76.79
50484;BME280;36409;52.168;20.878;2022-10-10T02:27:33;101634.64;;;1.81;76.55
50484;BME280;36409;52.168;20.878;2022-10-10T02:30:06;101632.11;;;1.83;76.55
50484;BME280;36409;52.168;20.878;2022-10-10T02:32:38;101627.05;;;1.84;76.48
50484;BME280;36409;52.168;20.878;2022-10-10T02:35:13;101619.38;;;1.86;75.97
50484;BME280;36409;52.168;20.878;2022-10-10T02:37:46;101619.38;;;1.86;77.08
50484;BME280;36409;52.168;20.878;2022-10-10T02:40:20;101626.29;;;1.87;77.03
50484;BME280;36409;52.168;20.878;2022-10-10T02:42:54;101612.60;;;1.88;76.39
50484;BME280;36409;52.168;20.878;2022-10-10T02:45:25;101609.13;;;1.88;76.52
50484;BME280;36409;52.168;20.878;2022-10-10T02:47:55;101606.45;;;1.84;76.84
50484;BME280;36409;52.168;20.878;2022-10-10T02:50:25;101604.69;;;1.83;77.02
50484;BME280;36409;52.168;20.878;2022-10-10T02:52:54;101614.17;;;1.84;76.41
50484;BME280;36409;52.168;20.878;2022-10-10T02:55:24;101614.23;;;1.86;76.22
50484;BME280;36409;52.168;20.878;2022-10-10T02:57:54;101615.23;;;1.90;76.29
50484;BME280;36409;52.168;20.878;2022-10-10T03:00:24;101614.36;;;1.89;76.62
50484;BME280;36409;52.168;20.878;2022-10-10T03:02:56;101608.27;;;1.87;76.24
50484;BME280;36409;52.168;20.878;2022-10-10T03:05:25;101619.33;;;1.84;76.58
50484;BME280;36409;52.168;20.878;2022-10-10T03:07:53;101619.24;;;1.83;77.03
50484;BME280;36409;52.168;20.878;2022-10-10T03:10:23;101619.24;;;1.83;76.79
50484;BME280;36409;52.168;20.878;2022-10-10T03:12:52;101616.56;;;1.80;76.99
50484;BME280;36409;52.168;20.878;2022-10-10T03:15:21;101623.39;;;1.79;76.90
50484;BME280;36409;52.168;20.878;2022-10-10T03:17:51;101622.52;;;1.79;77.23
50484;BME280;36409;52.168;20.878;2022-10-10T03:20:20;101619.95;;;1.79;76.54
50484;BME280;36409;52.168;20.878;2022-10-10T03:22:51;101629.16;;;1.74;76.17
50484;BME280;36409;52.168;20.878;2022-10-10T03:25:21;101622.06;;;1.68;76.07
50484;BME280;36409;52.168;20.878;2022-10-10T03:27:50;101624.50;;;1.65;77.22
50484;BME280;36409;52.168;20.878;2022-10-10T03:30:19;101630.41;;;1.62;77.16
50484;BME280;36409;52.168;20.878;2022-10-10T03:32:48;101628.72;;;1.63;76.69
50484;BME280;36409;52.168;20.878;2022-10-10T03:35:17;101634.73;;;1.63;77.29
50484;BME280;36409;52.168;20.878;2022-10-10T03:37:45;101627.16;;;1.66;77.23
50484;BME280;36409;52.168;20.878;2022-10-10T03:40:14;101625.39;;;1.65;76.49
50484;BME280;36409;52.168;20.878;2022-10-10T03:42:43;101620.30;;;1.67;76.62
50484;BME280;36409;52.168;20.878;2022-10-10T03:45:13;101619.43;;;1.66;77.03
50484;BME280;36409;52.168;20.878;2022-10-10T03:47:45;101612.52;;;1.65;77.19
50484;BME280;36409;52.168;20.878;2022-10-10T03:50:15;101611.70;;;1.66;77.23
50484;BME280;36409;52.168;20.878;2022-10-10T03:52:44;101620.30;;;1.67;77.42
50484;BME280;36409;52.168;20.878;2022-10-10T03:55:14;101619.48;;;1.68;76.91
50484;BME280;36409;52.168;20.878;2022-10-10T03:57:43;101620.38;;;1.68;77.11
50484;BME280;36409;52.168;20.878;2022-10-10T04:00:13;101617.86;;;1.70;77.49
50484;BME280;36409;52.168;20.878;2022-10-10T04:02:45;101616.23;;;1.72;76.87
50484;BME280;36409;52.168;20.878;2022-10-10T04:05:14;101609.37;;;1.73;77.47
50484;BME280;36409;52.168;20.878;2022-10-10T04:07:42;101612.04;;;1.74;76.69
50484;BME280;36409;52.168;20.878;2022-10-10T04:10:11;101611.14;;;1.74;77.36
50484;BME280;36409;52.168;20.878;2022-10-10T04:12:43;101612.84;;;1.73;77.12
50484;BME280;36409;52.168;20.878;2022-10-10T04:15:11;101616.28;;;1.74;77.44
50484;BME280;36409;52.168;20.878;2022-10-10T04:17:43;101615.42;;;1.73;76.82
50484;BME280;36409;52.168;20.878;2022-10-10T04:20:12;101616.28;;;1.74;76.90
50484;BME280;36409;52.168;20.878;2022-10-10T04:22:41;101615.42;;;1.73;77.74
50484;BME280;36409;52.168;20.878;2022-10-10T04:25:11;101618.81;;;1.72;77.66
50484;BME280;36409;52.168;20.878;2022-10-10T04:27:39;101614.47;;;1.71;76.80
50484;BME280;36409;52.168;20.878;2022-10-10T04:30:12;101610.14;;;1.70;76.76
50484;BME280;36409;52.168;20.878;2022-10-10T04:32:41;101604.84;;;1.67;77.50
50484;BME280;36409;52.168;20.878;2022-10-10T04:35:10;101602.14;;;1.64;76.97
50484;BME280;36409;52.168;20.878;2022-10-10T04:37:39;101600.32;;;1.61;76.78
50484;BME280;36409;52.168;20.878;2022-10-10T04:40:11;101605.42;;;1.60;76.64
50484;BME280;36409;52.168;20.878;2022-10-10T04:42:39;101608.80;;;1.59;76.95
50484;BME280;36409;52.168;20.878;2022-10-10T04:45:10;101611.38;;;1.59;77.17
50484;BME280;36409;52.168;20.878;2022-10-10T04:47:53;101618.20;;;1.58;77.79
50484;BME280;36409;52.168;20.878;2022-10-10T04:50:25;101624.25;;;1.59;77.56
50484;BME280;36409;52.168;20.878;2022-10-10T04:52:54;101616.47;;;1.57;77.25
50484;BME280;36409;52.168;20.878;2022-10-10T04:55:24;101613.05;;;1.58;76.79
50484;BME280;36409;52.168;20.878;2022-10-10T04:57:54;101610.48;;;1.58;76.81
50484;BME280;36409;52.168;20.878;2022-10-10T05:00:27;101610.38;;;1.55;76.85
50484;BME280;36409;52.168;20.878;2022-10-10T05:02:56;101602.52;;;1.52;77.51
50484;BME280;36409;52.168;20.878;2022-10-10T05:05:26;101616.20;;;1.51;77.76
50484;BME280;36409;52.168;20.878;2022-10-10T05:07:54;101615.38;;;1.52;77.59
50484;BME280;36409;52.168;20.878;2022-10-10T05:10:25;101612.00;;;1.53;76.68
50484;BME280;36409;52.168;20.878;2022-10-10T05:12:53;101612.81;;;1.52;76.93
50484;BME280;36409;52.168;20.878;2022-10-10T05:15:23;101613.62;;;1.51;77.46
50484;BME280;36409;52.168;20.878;2022-10-10T05:17:52;101613.42;;;1.46;77.53
50484;BME280;36409;52.168;20.878;2022-10-10T05:20:21;101602.13;;;1.43;77.49
50484;BME280;36409;52.168;20.878;2022-10-10T05:22:51;101602.04;;;1.41;77.22
50484;BME280;36409;52.168;20.878;2022-10-10T05:25:20;101602.04;;;1.41;76.82
50484;BME280;36409;52.168;20.878;2022-10-10T05:27:51;101600.42;;;1.43;77.70
50484;BME280;36409;52.168;20.878;2022-10-10T05:30:23;101593.78;;;1.48;76.84
50484;BME280;36409;52.168;20.878;2022-10-10T05:32:52;101582.73;;;1.51;77.69
50484;BME280;36409;52.168;20.878;2022-10-10T05:35:24;101593.22;;;1.56;77.28
50484;BME280;36409;52.168;20.878;2022-10-10T05:37:53;101596.88;;;1.61;77.92
50484;BME280;36409;52.168;20.878;2022-10-10T05:40:23;101600.52;;;1.66;78.02
50484;BME280;36409;52.168;20.878;2022-10-10T05:42:52;101606.89;;;1.74;77.94
50484;BME280;36409;52.168;20.878;2022-10-10T05:45:23;101611.41;;;1.80;77.47
50484;BME280;36409;52.168;20.878;2022-10-10T05:47:52;101606.50;;;1.86;77.96
50484;BME280;36409;52.168;20.878;2022-10-10T05:50:28;101598.15;;;1.92;78.21
50484;BME280;36409;52.168;20.878;2022-10-10T05:52:57;101599.28;;;1.98;77.08
50484;BME280;36409;52.168;20.878;2022-10-10T05:55:27;101601.36;;;2.07;77.25
50484;BME280;36409;52.168;20.878;2022-10-10T05:57:56;101605.11;;;2.15;77.34
50484;BME280;36409;52.168;20.878;2022-10-10T06:00:24;101589.97;;;2.23;77.51
50484;BME280;36409;52.168;20.878;2022-10-10T06:02:53;101598.81;;;2.30;78.05
50484;BME280;36409;52.168;20.878;2022-10-10T06:05:25;101594.84;;;2.38;77.75
50484;BME280;36409;52.168;20.878;2022-10-10T06:07:53;101598.63;;;2.48;77.41
50484;BME280;36409;52.168;20.878;2022-10-10T06:10:42;101594.67;;;2.56;78.30
50484;BME280;36409;52.168;20.878;2022-10-10T06:13:13;101594.97;;;2.64;77.42
50484;BME280;36409;52.168;20.878;2022-10-10T06:15:42;101598.75;;;2.74;78.39
50484;BME280;36409;52.168;20.878;2022-10-10T06:18:11;101595.69;;;2.84;77.86
50484;BME280;36409;52.168;20.878;2022-10-10T06:20:42;101593.52;;;2.95;77.49
50484;BME280;36409;52.168;20.878;2022-10-10T06:23:11;101584.40;;;3.05;77.59
50484;BME280;36409;52.168;20.878;2022-10-10T06:25:39;101596.84;;;3.15;78.27
50484;BME280;36409;52.168;20.878;2022-10-10T06:28:10;101589.41;;;3.24;77.64
50484;BME280;36409;52.168;20.878;2022-10-10T06:30:42;101586.33;;;3.35;78.59
50484;BME280;36409;52.168;20.878;2022-10-10T06:33:12;101591.09;;;3.48;78.70
50484;BME280;36409;52.168;20.878;2022-10-10T06:35:45;101586.28;;;3.59;77.83
50484;BME280;36409;52.168;20.878;2022-10-10T06:38:15;101589.28;;;3.71;78.72
50484;BME280;36409;52.168;20.878;2022-10-10T06:40:47;101580.19;;;3.83;78.61
50484;BME280;36409;52.168;20.878;2022-10-10T06:43:16;101580.59;;;3.95;78.24
50484;BME280;36409;52.168;20.878;2022-10-10T06:45:48;101577.50;;;4.07;78.32
50484;BME280;36409;52.168;20.878;2022-10-10T06:48:17;101574.48;;;4.21;78.08
50484;BME280;36409;52.168;20.878;2022-10-10T06:50:56;101568.87;;;4.34;78.57
50484;BME280;36409;52.168;20.878;2022-10-10T06:53:25;101569.24;;;4.46;78.15
50484;BME280;36409;52.168;20.878;2022-10-10T06:55:54;101573.95;;;4.60;78.44
50484;BME280;36409;52.168;20.878;2022-10-10T06:58:26;101572.63;;;4.74;78.58
50484;BME280;36409;52.168;20.878;2022-10-10T07:00:58;101573.11;;;4.91;78.75
50484;BME280;36409;52.168;20.878;2022-10-10T07:03:27;101584.03;;;5.12;78.69
50484;BME280;36409;52.168;20.878;2022-10-10T07:05:58;101575.92;;;5.31;78.55
50484;BME280;36409;52.168;20.878;2022-10-10T07:08:30;101575.13;;;5.67;78.31
50484;BME280;36409;52.168;20.878;2022-10-10T07:10:59;101574.12;;;5.97;78.51
50484;BME280;36409;52.168;20.878;2022-10-10T07:13:27;101570.45;;;6.23;78.71
50484;BME280;36409;52.168;20.878;2022-10-10T07:15:56;101574.45;;;6.48;78.53
50484;BME280;36409;52.168;20.878;2022-10-10T07:18:24;101574.67;;;7.00;78.47
50484;BME280;36409;52.168;20.878;2022-10-10T07:20:56;101571.62;;;7.70;78.29
50484;BME280;36409;52.168;20.878;2022-10-10T07:23:25;101564.30;;;8.01;78.10
50484;BME280;36409;52.168;20.878;2022-10-10T07:25:59;101567.48;;;8.42;78.31
50484;BME280;36409;52.168;20.878;2022-10-10T07:28:29;101565.13;;;8.59;77.56
50484;BME280;36409;52.168;20.878;2022-10-10T07:31:02;101563.55;;;8.70;77.46
50484;BME280;36409;52.168;20.878;2022-10-10T07:33:32;101558.11;;;9.27;76.53
50484;BME280;36409;52.168;20.878;2022-10-10T07:36:01;101553.09;;;9.46;76.72
50484;BME280;36409;52.168;20.878;2022-10-10T07:40:57;101550.16;;;9.15;77.08
50484;BME280;36409;52.168;20.878;2022-10-10T07:43:26;101551.27;;;9.37;76.71
50484;BME280;36409;52.168;20.878;2022-10-10T07:45:55;101552.95;;;10.43;74.43
50484;BME280;36409;52.168;20.878;2022-10-10T07:48:24;101546.28;;;11.30;73.89
50484;BME280;36409;52.168;20.878;2022-10-10T07:50:53;101543.67;;;11.80;75.06
50484;BME280;36409;52.168;20.878;2022-10-10T07:53:21;101537.44;;;12.54;72.93
50484;BME280;36409;52.168;20.878;2022-10-10T07:55:52;101535.69;;;12.56;71.90
50484;BME280;36409;52.168;20.878;2022-10-10T07:58:20;101535.81;;;12.06;72.84
50484;BME280;36409;52.168;20.878;2022-10-10T08:00:50;101541.08;;;12.00;73.58
50484;BME280;36409;52.168;20.878;2022-10-10T08:03:18;101538.15;;;12.93;71.00
50484;BME280;36409;52.168;20.878;2022-10-10T08:05:47;101547.81;;;12.78;70.58
50484;BME280;36409;52.168;20.878;2022-10-10T08:08:15;101545.36;;;12.29;71.27
50484;BME280;36409;52.168;20.878;2022-10-10T08:10:44;101540.03;;;12.58;71.51
50484;BME280;36409;52.168;20.878;2022-10-10T08:13:12;101535.66;;;12.63;70.90
50484;BME280;36409;52.168;20.878;2022-10-10T08:15:41;101531.92;;;13.09;69.52
50484;BME280;36409;52.168;20.878;2022-10-10T08:18:09;101535.73;;;13.85;68.81
50484;BME280;36409;52.168;20.878;2022-10-10T08:20:38;101524.70;;;14.38;68.22
50484;BME280;36409;52.168;20.878;2022-10-10T08:23:06;101527.22;;;13.59;70.22
50484;BME280;36409;52.168;20.878;2022-10-10T08:25:35;101525.05;;;12.93;70.22
50484;BME280;36409;52.168;20.878;2022-10-10T08:28:03;101522.69;;;12.26;71.68
50484;BME280;36409;52.168;20.878;2022-10-10T08:30:32;101528.83;;;11.96;72.22
50484;BME280;36409;52.168;20.878;2022-10-10T08:33:01;101522.77;;;11.73;72.04
50484;BME280;36409;52.168;20.878;2022-10-10T08:35:29;101530.61;;;11.52;71.80
50484;BME280;36409;52.168;20.878;2022-10-10T08:37:58;101518.40;;;11.43;72.17
50484;BME280;36409;52.168;20.878;2022-10-10T08:40:26;101517.52;;;11.36;73.16
50484;BME280;36409;52.168;20.878;2022-10-10T08:42:56;101509.67;;;11.27;72.51
50484;BME280;36409;52.168;20.878;2022-10-10T08:45:26;101500.09;;;11.21;72.98
50484;BME280;36409;52.168;20.878;2022-10-10T08:47:58;101500.09;;;11.24;72.20
50484;BME280;36409;52.168;20.878;2022-10-10T08:50:31;101489.65;;;11.51;72.30
50484;BME280;36409;52.168;20.878;2022-10-10T08:53:04;101483.52;;;13.60;69.90
50484;BME280;36409;52.168;20.878;2022-10-10T08:55:37;101479.88;;;17.01;64.65
50484;BME280;36409;52.168;20.878;2022-10-10T08:58:14;101473.27;;;19.36;61.94
50484;BME280;36409;52.168;20.878;2022-10-10T09:00:47;101468.66;;;21.11;60.15
50484;BME280;36409;52.168;20.878;2022-10-10T09:03:23;101462.24;;;22.58;58.88
50484;BME280;36409;52.168;20.878;2022-10-10T09:06:04;101467.73;;;23.64;57.13
50484;BME280;36409;52.168;20.878;2022-10-10T09:08:41;101453.39;;;24.49;56.05
50484;BME280;36409;52.168;20.878;2022-10-10T09:11:28;101451.17;;;25.51;55.24
50484;BME280;36409;52.168;20.878;2022-10-10T09:14:18;101452.73;;;25.84;53.15
50484;BME280;36409;52.168;20.878;2022-10-10T09:16:54;101443.27;;;26.07;52.19
50484;BME280;36409;52.168;20.878;2022-10-10T09:19:34;101446.27;;;26.17;51.15
50484;BME280;36409;52.168;20.878;2022-10-10T09:22:12;101443.19;;;26.65;51.48
50484;BME280;36409;52.168;20.878;2022-10-10T09:24:45;101443.59;;;27.13;50.95
50484;BME280;36409;52.168;20.878;2022-10-10T09:27:16;101440.69;;;27.44;50.63
50484;BME280;36409;52.168;20.878;2022-10-10T09:29:50;101434.04;;;27.50;50.01
50484;BME280;36409;52.168;20.878;2022-10-10T09:32:24;101443.97;;;26.94;49.57
50484;BME280;36409;52.168;20.878;2022-10-10T09:34:59;101439.89;;;26.47;49.71
50484;BME280;36409;52.168;20.878;2022-10-10T09:37:33;101443.57;;;25.73;50.39
50484;BME280;36409;52.168;20.878;2022-10-10T09:40:21;101435.14;;;24.42;51.62
50484;BME280;36409;52.168;20.878;2022-10-10T09:42:51;101438.48;;;23.62;52.45
50484;BME280;36409;52.168;20.878;2022-10-10T09:45:26;101437.45;;;22.94;53.04
50484;BME280;36409;52.168;20.878;2022-10-10T09:47:56;101436.87;;;22.51;54.20
50484;BME280;36409;52.168;20.878;2022-10-10T09:50:26;101436.05;;;21.71;54.00
50484;BME280;36409;52.168;20.878;2022-10-10T09:52:56;101434.59;;;21.00;54.71
50484;BME280;36409;52.168;20.878;2022-10-10T09:55:27;101432.13;;;20.49;55.05
50484;BME280;36409;52.168;20.878;2022-10-10T09:58:03;101444.22;;;19.85;55.46
50484;BME280;36409;52.168;20.878;2022-10-10T10:00:38;101434.91;;;19.23;55.63
50484;BME280;36409;52.168;20.878;2022-10-10T10:03:13;101440.13;;;18.69;55.34
50484;BME280;36409;52.168;20.878;2022-10-10T10:05:45;101434.36;;;18.26;56.23
50484;BME280;36409;52.168;20.878;2022-10-10T10:08:29;101437.28;;;18.17;56.75
50484;BME280;36409;52.168;20.878;2022-10-10T10:11:00;101432.13;;;18.12;57.08
50484;BME280;36409;52.168;20.878;2022-10-10T10:13:32;101425.56;;;17.94;56.34
50484;BME280;36409;52.168;20.878;2022-10-10T10:16:04;101425.88;;;17.83;56.08
50484;BME280;36409;52.168;20.878;2022-10-10T10:18:39;101417.52;;;17.67;56.51
50484;BME280;36409;52.168;20.878;2022-10-10T10:21:15;101418.70;;;17.55;56.15
50484;BME280;36409;52.168;20.878;2022-10-10T10:23:56;101415.68;;;17.36;56.14
50484;BME280;36409;52.168;20.878;2022-10-10T10:26:28;101412.12;;;17.39;56.45
50484;BME280;36409;52.168;20.878;2022-10-10T10:28:58;101415.41;;;17.47;56.64
50484;BME280;36409;52.168;20.878;2022-10-10T10:31:49;101402.81;;;17.57;56.72
50484;BME280;36409;52.168;20.878;2022-10-10T10:34:49;101395.47;;;17.68;56.85
50484;BME280;36409;52.168;20.878;2022-10-10T10:37:24;101389.13;;;17.75;56.70
50484;BME280;36409;52.168;20.878;2022-10-10T10:40:15;101391.64;;;17.80;56.11
50484;BME280;36409;52.168;20.878;2022-10-10T10:43:01;101386.25;;;17.52;55.97
50484;BME280;36409;52.168;20.878;2022-10-10T10:45:38;101382.16;;;17.40;56.26
50484;BME280;36409;52.168;20.878;2022-10-10T10:48:22;101383.77;;;17.45;56.44
50484;BME280;36409;52.168;20.878;2022-10-10T10:50:58;101382.39;;;17.32;55.88
50484;BME280;36409;52.168;20.878;2022-10-10T10:53:38;101375.69;;;17.19;56.02
50484;BME280;36409;52.168;20.878;2022-10-10T10:56:18;101375.12;;;17.06;55.52
50484;BME280;36409;52.168;20.878;2022-10-10T10:59:17;101374.89;;;16.79;55.79
50484;BME280;36409;52.168;20.878;2022-10-10T11:02:40;101362.61;;;16.78;56.21
50484;BME280;36409;52.168;20.878;2022-10-10T11:05:35;101361.52;;;16.87;56.37
50484;BME280;36409;52.168;20.878;2022-10-10T11:08:27;101364.06;;;16.90;56.31
50484;BME280;36409;52.168;20.878;2022-10-10T11:11:09;101359.61;;;16.93;56.31
50484;BME280;36409;52.168;20.878;2022-10-10T11:13:47;101359.61;;;16.93;56.11
50484;BME280;36409;52.168;20.878;2022-10-10T11:16:29;101357.03;;;16.90;56.09
50484;BME280;36409;52.168;20.878;2022-10-10T11:19:25;101348.92;;;17.00;56.45
50484;BME280;36409;52.168;20.878;2022-10-10T11:21:59;101353.17;;;17.05;55.82
50484;BME280;36409;52.168;20.878;2022-10-10T11:24:39;101356.05;;;16.96;55.69
50484;BME280;36409;52.168;20.878;2022-10-10T11:27:13;101348.48;;;16.80;55.42
50484;BME280;36409;52.168;20.878;2022-10-10T11:30:03;101344.20;;;16.76;55.71
50484;BME280;36409;52.168;20.878;2022-10-10T11:32:36;101338.05;;;16.76;55.41
50484;BME280;36409;52.168;20.878;2022-10-10T11:35:22;101340.56;;;16.80;55.47
50484;BME280;36409;52.168;20.878;2022-10-10T11:37:57;101336.08;;;16.84;55.44
50484;BME280;36409;52.168;20.878;2022-10-10T11:40:43;101333.49;;;16.82;55.09
50484;BME280;36409;52.168;20.878;2022-10-10T11:43:20;101325.10;;;16.66;55.05
50484;BME280;36409;52.168;20.878;2022-10-10T11:45:56;101323.48;;;16.61;54.90
50484;BME280;36409;52.168;20.878;2022-10-10T11:48:38;101318.33;;;16.56;54.79
50484;BME280;36409;52.168;20.878;2022-10-10T11:51:22;101317.42;;;16.57;55.17
50484;BME280;36409;52.168;20.878;2022-10-10T11:53:59;101310.38;;;16.58;55.18
50484;BME280;36409;52.168;20.878;2022-10-10T11:56:33;101298.19;;;16.54;54.63
50484;BME280;36409;52.168;20.878;2022-10-10T11:59:13;101292.16;;;16.48;54.66
50484;BME280;36409;52.168;20.878;2022-10-10T12:01:47;101284.43;;;16.41;54.54
50484;BME280;36409;52.168;20.878;2022-10-10T12:04:16;101283.58;;;16.40;55.06
50484;BME280;36409;52.168;20.878;2022-10-10T12:06:47;101279.39;;;16.31;54.65
50484;BME280;36409;52.168;20.878;2022-10-10T12:09:21;101277.03;;;16.19;54.62
50484;BME280;36409;52.168;20.878;2022-10-10T12:11:55;101275.41;;;16.13;54.26
50484;BME280;36409;52.168;20.878;2022-10-10T12:14:28;101263.31;;;16.04;54.61
50484;BME280;36409;52.168;20.878;2022-10-10T12:16:58;101260.73;;;16.03;54.52
50484;BME280;36409;52.168;20.878;2022-10-10T12:19:28;101256.47;;;15.97;54.68
50484;BME280;36409;52.168;20.878;2022-10-10T12:21:58;101261.95;;;15.88;54.04
50484;BME280;36409;52.168;20.878;2022-10-10T12:24:29;101248.86;;;15.83;54.53
50484;BME280;36409;52.168;20.878;2022-10-10T12:27:26;101247.13;;;15.82;54.48
50484;BME280;36409;52.168;20.878;2022-10-10T12:30:20;101248.08;;;15.78;54.51
50484;BME280;36409;52.168;20.878;2022-10-10T12:32:52;101231.59;;;15.70;54.49
50484;BME280;36409;52.168;20.878;2022-10-10T12:35:42;101231.70;;;15.65;54.84
50484;BME280;36409;52.168;20.878;2022-10-10T12:38:19;101226.54;;;15.60;54.76
50484;BME280;36409;52.168;20.878;2022-10-10T12:41:14;101223.02;;;15.62;54.51
50484;BME280;36409;52.168;20.878;2022-10-10T12:43:48;101222.03;;;15.66;54.80
50484;BME280;36409;52.168;20.878;2022-10-10T12:46:34;101216.70;;;15.69;54.61
50484;BME280;36409;52.168;20.878;2022-10-10T12:49:19;101211.50;;;15.66;54.73
50484;BME280;36409;52.168;20.878;2022-10-10T12:52:00;101212.50;;;15.60;54.59
50484;BME280;36409;52.168;20.878;2022-10-10T12:54:35;101206.45;;;15.56;54.70
50484;BME280;36409;52.168;20.878;2022-10-10T12:57:15;101201.98;;;15.60;54.43
50484;BME280;36409;52.168;20.878;2022-10-10T12:59:46;101191.39;;;15.63;54.95
50484;BME280;36409;52.168;20.878;2022-10-10T13:02:17;101194.02;;;15.65;54.40
50484;BME280;36409;52.168;20.878;2022-10-10T13:04:48;101187.81;;;15.66;55.08
50484;BME280;36409;52.168;20.878;2022-10-10T13:07:20;101187.02;;;15.64;54.43
50484;BME280;36409;52.168;20.878;2022-10-10T13:09:52;101185.34;;;15.59;54.74
50484;BME280;36409;52.168;20.878;2022-10-10T13:12:24;101177.48;;;15.58;54.71
50484;BME280;36409;52.168;20.878;2022-10-10T13:14:54;101175.81;;;15.54;54.56
50484;BME280;36409;52.168;20.878;2022-10-10T13:17:26;101169.77;;;15.50;54.72
50484;BME280;36409;52.168;20.878;2022-10-10T13:19:57;101167.98;;;15.51;54.52